sensor_id;sensor_type;location;lat;lon;timestamp;pressure;altitude;pressure_sealevel;temperature;humidity
19590;BME280;12231;42.782;23.388;2023-03-08T00:00:16;94795.03;;;4.48;100.00
19590;BME280;12231;42.782;23.388;2023-03-08T00:02:42;94795.03;;;4.48;100.00
19590;BME280;12231;42.782;23.388;2023-03-08T00:05:09;94798.53;;;4.46;100.00
19590;BME280;12231;42.782;23.388;2023-03-08T00:07:34;94795.78;;;4.50;100.00
19590;BME280;12231;42.782;23.388;2023-03-08T00:10:00;94798.25;;;4.52;100.00
19590;BME280;12231;42.782;23.388;2023-03-08T00:12:25;94799.28;;;4.48;100.00
19590;BME280;12231;42.782;23.388;2023-03-08T00:14:51;94795.78;;;4.50;100.00
19590;BME280;12231;42.782;23.388;2023-03-08T00:17:17;94797.19;;;4.56;100.00
19590;BME280;12231;42.782;23.388;2023-03-08T00:19:43;94806.72;;;4.52;100.00
19590;BME280;12231;42.782;23.388;2023-03-08T00:22:09;94807.31;;;4.40;100.00
19590;BME280;12231;42.782;23.388;2023-03-08T00:24:35;94799.59;;;4.42;100.00
19590;BME280;12231;42.782;23.388;2023-03-08T00:27:01;94800.94;;;4.32;100.00
19590;BME280;12231;42.782;23.388;2023-03-08T00:29:26;94807.31;;;4.23;100.00
19590;BME280;12231;42.782;23.388;2023-03-08T00:31:52;94815.72;;;4.25;100.00
19590;BME280;12231;42.782;23.388;2023-03-08T00:37:20;94814.09;;;4.05;100.00
19590;BME280;12231;42.782;23.388;2023-03-08T00:40:04;94814.31;;;4.01;100.00
19590;BME280;12231;42.782;23.388;2023-03-08T00:42:48;94810.38;;;3.77;100.00
19590;BME280;12231;42.782;23.388;2023-03-08T00:45:14;94807.00;;;3.76;100.00
19590;BME280;12231;42.782;23.388;2023-03-08T00:47:58;94799.97;;;3.63;100.00
19590;BME280;12231;42.782;23.388;2023-03-08T00:50:23;94804.75;;;3.52;100.00
19590;BME280;12231;42.782;23.388;2023-03-08T00:52:48;94800.88;;;3.62;100.00
19590;BME280;12231;42.782;23.388;2023-03-08T00:55:14;94803.50;;;3.60;100.00
19590;BME280;12231;42.782;23.388;2023-03-08T00:57:39;94808.94;;;3.71;100.00
19590;BME280;12231;42.782;23.388;2023-03-08T01:00:05;94803.34;;;3.82;100.00
19590;BME280;12231;42.782;23.388;2023-03-08T01:02:32;94804.16;;;3.82;100.00
19590;BME280;12231;42.782;23.388;2023-03-08T01:04:57;94805.53;;;3.89;100.00
19590;BME280;12231;42.782;23.388;2023-03-08T01:07:23;94813.25;;;3.88;100.00
19590;BME280;12231;42.782;23.388;2023-03-08T01:09:53;94805.44;;;3.55;100.00
19590;BME280;12231;42.782;23.388;2023-03-08T01:12:19;94819.28;;;3.31;100.00
19590;BME280;12231;42.782;23.388;2023-03-08T01:14:46;94810.50;;;3.37;100.00
19590;BME280;12231;42.782;23.388;2023-03-08T01:17:12;94816.63;;;3.51;100.00
19590;BME280;12231;42.782;23.388;2023-03-08T01:19:37;94818.28;;;3.71;100.00
19590;BME280;12231;42.782;23.388;2023-03-08T01:22:02;94815.47;;;3.77;100.00
19590;BME280;12231;42.782;23.388;2023-03-08T01:24:28;94811.59;;;3.87;100.00
19590;BME280;12231;42.782;23.388;2023-03-08T01:26:53;94815.81;;;3.88;100.00
19590;BME280;12231;42.782;23.388;2023-03-08T01:29:22;94812.19;;;3.92;100.00
19590;BME280;12231;42.782;23.388;2023-03-08T01:31:48;94811.31;;;3.93;100.00
19590;BME280;12231;42.782;23.388;2023-03-08T01:34:13;94806.97;;;3.95;100.00
19590;BME280;12231;42.782;23.388;2023-03-08T01:36:39;94816.25;;;3.96;100.00
19590;BME280;12231;42.782;23.388;2023-03-08T01:39:04;94811.31;;;3.93;100.00
19590;BME280;12231;42.782;23.388;2023-03-08T01:41:30;94807.78;;;3.95;100.00
19590;BME280;12231;42.782;23.388;2023-03-08T01:43:56;94812.19;;;3.92;100.00
19590;BME280;12231;42.782;23.388;2023-03-08T01:46:31;94812.41;;;3.87;100.00
19590;BME280;12231;42.782;23.388;2023-03-08T01:49:16;94813.41;;;3.85;100.00
19590;BME280;12231;42.782;23.388;2023-03-08T01:52:03;94818.56;;;3.83;100.00
19590;BME280;12231;42.782;23.388;2023-03-08T01:54:37;94817.81;;;3.81;100.00
19590;BME280;12231;42.782;23.388;2023-03-08T01:57:21;94822.06;;;3.81;100.00
19590;BME280;12231;42.782;23.388;2023-03-08T01:59:48;94827.38;;;3.76;100.00
19590;BME280;12231;42.782;23.388;2023-03-08T02:02:17;94818.63;;;3.63;100.00
19590;BME280;12231;42.782;23.388;2023-03-08T02:04:45;94823.25;;;3.37;100.00
19590;BME280;12231;42.782;23.388;2023-03-08T02:07:11;94825.47;;;3.44;100.00
19590;BME280;12231;42.782;23.388;2023-03-08T02:09:38;94816.28;;;5.15;100.00
19590;BME280;12231;42.782;23.388;2023-03-08T02:12:08;94801.13;;;7.93;100.00
19590;BME280;12231;42.782;23.388;2023-03-08T02:14:35;94803.09;;;7.75;100.00
19590;BME280;12231;42.782;23.388;2023-03-08T02:17:01;94804.75;;;7.48;100.00
19590;BME280;12231;42.782;23.388;2023-03-08T02:21:56;94823.69;;;6.15;98.38
19590;BME280;12231;42.782;23.388;2023-03-08T02:24:23;94819.75;;;6.09;97.77
19590;BME280;12231;42.782;23.388;2023-03-08T02:26:51;94825.31;;;5.05;99.92
19590;BME280;12231;42.782;23.388;2023-03-08T02:29:17;94820.63;;;4.96;99.95
19590;BME280;12231;42.782;23.388;2023-03-08T02:31:43;94827.19;;;4.85;100.00
19590;BME280;12231;42.782;23.388;2023-03-08T02:34:27;94823.38;;;4.76;100.00
19590;BME280;12231;42.782;23.388;2023-03-08T02:36:52;94828.78;;;4.70;100.00
19590;BME280;12231;42.782;23.388;2023-03-08T02:39:55;94825.41;;;4.53;100.00
19590;BME280;12231;42.782;23.388;2023-03-08T02:42:39;94833.59;;;4.42;100.00
19590;BME280;12231;42.782;23.388;2023-03-08T02:45:05;94831.22;;;3.85;100.00
19590;BME280;12231;42.782;23.388;2023-03-08T02:47:31;94838.97;;;4.00;100.00
19590;BME280;12231;42.782;23.388;2023-03-08T02:50:15;94837.19;;;4.02;100.00
19590;BME280;12231;42.782;23.388;2023-03-08T02:53:18;94835.72;;;3.80;100.00
19590;BME280;12231;42.782;23.388;2023-03-08T02:56:21;94834.63;;;3.67;100.00
19590;BME280;12231;42.782;23.388;2023-03-08T02:58:46;94840.81;;;3.61;100.00
19590;BME280;12231;42.782;23.388;2023-03-08T03:01:13;94850.13;;;3.62;100.00
19590;BME280;12231;42.782;23.388;2023-03-08T03:03:40;94842.47;;;3.44;100.00
19590;BME280;12231;42.782;23.388;2023-03-08T03:06:16;94847.13;;;3.34;100.00
19590;BME280;12231;42.782;23.388;2023-03-08T03:08:42;94853.13;;;3.33;100.00
19590;BME280;12231;42.782;23.388;2023-03-08T03:13:37;94851.94;;;3.22;100.00
19590;BME280;12231;42.782;23.388;2023-03-08T03:16:11;94859.66;;;3.20;100.00
19590;BME280;12231;42.782;23.388;2023-03-08T03:21:21;94854.88;;;3.13;100.00
19590;BME280;12231;42.782;23.388;2023-03-08T03:23:47;94853.94;;;3.15;100.00
19590;BME280;12231;42.782;23.388;2023-03-08T03:26:19;94859.09;;;3.14;100.00
19590;BME280;12231;42.782;23.388;2023-03-08T03:28:46;94857.53;;;2.91;100.00
19590;BME280;12231;42.782;23.388;2023-03-08T03:31:17;94860.06;;;2.71;100.00
19590;BME280;12231;42.782;23.388;2023-03-08T03:33:43;94861.34;;;2.39;100.00
19590;BME280;12231;42.782;23.388;2023-03-08T03:36:12;94869.13;;;2.15;100.00
19590;BME280;12231;42.782;23.388;2023-03-08T03:38:38;94872.56;;;1.92;100.00
19590;BME280;12231;42.782;23.388;2023-03-08T03:41:18;94875.16;;;1.91;100.00
19590;BME280;12231;42.782;23.388;2023-03-08T03:43:44;94885.31;;;1.91;100.00
19590;BME280;12231;42.782;23.388;2023-03-08T03:46:11;94870.00;;;1.92;100.00
19590;BME280;12231;42.782;23.388;2023-03-08T03:48:38;94878.00;;;1.83;100.00
19590;BME280;12231;42.782;23.388;2023-03-08T03:51:09;94882.47;;;1.77;100.00
19590;BME280;12231;42.782;23.388;2023-03-08T03:53:35;94891.84;;;1.75;100.00
19590;BME280;12231;42.782;23.388;2023-03-08T03:56:05;94884.78;;;1.83;100.00
19590;BME280;12231;42.782;23.388;2023-03-08T03:58:32;94885.72;;;1.80;100.00
19590;BME280;12231;42.782;23.388;2023-03-08T04:00:57;94888.09;;;1.85;100.00
19590;BME280;12231;42.782;23.388;2023-03-08T04:03:23;94887.84;;;1.91;100.00
19590;BME280;12231;42.782;23.388;2023-03-08T04:05:49;94882.53;;;1.75;100.00
19590;BME280;12231;42.782;23.388;2023-03-08T04:08:14;94886.81;;;1.96;100.00
19590;BME280;12231;42.782;23.388;2023-03-08T04:10:40;94888.50;;;1.96;100.00
19590;BME280;12231;42.782;23.388;2023-03-08T04:13:05;94885.56;;;1.62;100.00
19590;BME280;12231;42.782;23.388;2023-03-08T04:15:31;94890.06;;;1.55;100.00
19590;BME280;12231;42.782;23.388;2023-03-08T04:17:56;94898.56;;;1.77;100.00
19590;BME280;12231;42.782;23.388;2023-03-08T04:20:23;94901.28;;;1.71;100.00
19590;BME280;12231;42.782;23.388;2023-03-08T04:22:48;94899.09;;;1.62;100.00
19590;BME280;12231;42.782;23.388;2023-03-08T04:25:14;94906.06;;;1.57;100.00
19590;BME280;12231;42.782;23.388;2023-03-08T04:27:39;94905.47;;;1.51;100.00
19590;BME280;12231;42.782;23.388;2023-03-08T04:30:05;94900.31;;;1.52;100.00
19590;BME280;12231;42.782;23.388;2023-03-08T04:32:31;94901.22;;;1.51;100.00
19590;BME280;12231;42.782;23.388;2023-03-08T04:34:57;94903.16;;;1.45;100.00
19590;BME280;12231;42.782;23.388;2023-03-08T04:37:23;94903.34;;;1.38;100.00
19590;BME280;12231;42.782;23.388;2023-03-08T04:39:48;94909.16;;;1.65;100.00
19590;BME280;12231;42.782;23.388;2023-03-08T04:42:14;94903.34;;;1.62;100.00
19590;BME280;12231;42.782;23.388;2023-03-08T04:44:39;94902.34;;;2.10;100.00
19590;BME280;12231;42.782;23.388;2023-03-08T04:47:05;94888.66;;;2.14;100.00
19590;BME280;12231;42.782;23.388;2023-03-08T04:49:31;94911.69;;;2.10;100.00
19590;BME280;12231;42.782;23.388;2023-03-08T04:51:56;94903.59;;;2.43;100.00
19590;BME280;12231;42.782;23.388;2023-03-08T04:54:22;94900.16;;;2.23;100.00
19590;BME280;12231;42.782;23.388;2023-03-08T04:56:47;94894.13;;;2.04;100.00
19590;BME280;12231;42.782;23.388;2023-03-08T04:59:13;94895.56;;;2.11;100.00
19590;BME280;12231;42.782;23.388;2023-03-08T05:01:38;94887.69;;;2.38;100.00
19590;BME280;12231;42.782;23.388;2023-03-08T05:04:04;94901.81;;;2.65;100.00
19590;BME280;12231;42.782;23.388;2023-03-08T05:06:29;94899.53;;;3.00;100.00
19590;BME280;12231;42.782;23.388;2023-03-08T05:08:55;94912.44;;;3.35;100.00
19590;BME280;12231;42.782;23.388;2023-03-08T05:11:22;94911.53;;;3.75;100.00
19590;BME280;12231;42.782;23.388;2023-03-08T05:13:48;94917.03;;;4.21;100.00
19590;BME280;12231;42.782;23.388;2023-03-08T05:16:14;94918.94;;;4.71;100.00
19590;BME280;12231;42.782;23.388;2023-03-08T05:18:40;94932.91;;;4.98;100.00
19590;BME280;12231;42.782;23.388;2023-03-08T05:21:09;94941.00;;;5.40;100.00
19590;BME280;12231;42.782;23.388;2023-03-08T05:23:35;94936.25;;;6.15;100.00
19590;BME280;12231;42.782;23.388;2023-03-08T05:26:02;94942.59;;;6.70;97.61
19590;BME280;12231;42.782;23.388;2023-03-08T05:28:30;94947.59;;;7.46;95.06
19590;BME280;12231;42.782;23.388;2023-03-08T05:31:13;94954.78;;;7.97;90.79
19590;BME280;12231;42.782;23.388;2023-03-08T05:33:40;94955.16;;;8.33;87.94
19590;BME280;12231;42.782;23.388;2023-03-08T05:36:06;94953.41;;;8.20;86.18
19590;BME280;12231;42.782;23.388;2023-03-08T05:38:32;94964.25;;;8.25;86.25
19590;BME280;12231;42.782;23.388;2023-03-08T05:41:03;94958.28;;;8.24;85.23
19590;BME280;12231;42.782;23.388;2023-03-08T05:43:28;94958.53;;;8.06;85.79
19590;BME280;12231;42.782;23.388;2023-03-08T05:46:00;94964.41;;;7.94;86.47
19590;BME280;12231;42.782;23.388;2023-03-08T05:48:26;94966.06;;;7.95;87.18
19590;BME280;12231;42.782;23.388;2023-03-08T05:50:52;94964.50;;;7.35;88.26
19590;BME280;12231;42.782;23.388;2023-03-08T05:53:18;94965.19;;;7.52;89.16
19590;BME280;12231;42.782;23.388;2023-03-08T05:55:43;94964.97;;;8.13;87.55
19590;BME280;12231;42.782;23.388;2023-03-08T05:58:09;94970.28;;;8.38;85.17
19590;BME280;12231;42.782;23.388;2023-03-08T06:00:34;94976.63;;;8.32;87.25
19590;BME280;12231;42.782;23.388;2023-03-08T06:03:00;94976.44;;;9.42;84.93
19590;BME280;12231;42.782;23.388;2023-03-08T06:05:28;94976.59;;;10.53;81.17
19590;BME280;12231;42.782;23.388;2023-03-08T06:07:54;94972.53;;;11.22;77.34
19590;BME280;12231;42.782;23.388;2023-03-08T06:10:19;94966.25;;;12.28;74.22
19590;BME280;12231;42.782;23.388;2023-03-08T06:12:45;94958.16;;;12.55;71.23
19590;BME280;12231;42.782;23.388;2023-03-08T06:15:10;94958.81;;;13.64;66.53
19590;BME280;12231;42.782;23.388;2023-03-08T06:17:37;94959.75;;;13.84;63.93
19590;BME280;12231;42.782;23.388;2023-03-08T06:20:03;94955.09;;;13.25;65.71
19590;BME280;12231;42.782;23.388;2023-03-08T06:22:28;94952.69;;;14.66;62.43
19590;BME280;12231;42.782;23.388;2023-03-08T06:24:54;94955.63;;;14.82;61.11
19590;BME280;12231;42.782;23.388;2023-03-08T06:27:19;94958.81;;;15.24;56.85
19590;BME280;12231;42.782;23.388;2023-03-08T06:29:45;94967.63;;;15.42;56.32
19590;BME280;12231;42.782;23.388;2023-03-08T06:32:10;94964.84;;;14.66;56.84
19590;BME280;12231;42.782;23.388;2023-03-08T06:34:36;94977.53;;;13.56;59.55
19590;BME280;12231;42.782;23.388;2023-03-08T06:37:01;94973.94;;;13.16;61.76
19590;BME280;12231;42.782;23.388;2023-03-08T06:39:26;94971.03;;;13.41;61.47
19590;BME280;12231;42.782;23.388;2023-03-08T06:41:55;94965.88;;;13.82;59.20
19590;BME280;12231;42.782;23.388;2023-03-08T06:44:21;94973.38;;;14.47;57.95
19590;BME280;12231;42.782;23.388;2023-03-08T06:46:46;94972.78;;;14.34;59.34
19590;BME280;12231;42.782;23.388;2023-03-08T06:49:11;94972.00;;;15.80;55.83
19590;BME280;12231;42.782;23.388;2023-03-08T06:51:37;94986.78;;;15.98;53.84
19590;BME280;12231;42.782;23.388;2023-03-08T06:54:02;94980.38;;;16.29;54.02
19590;BME280;12231;42.782;23.388;2023-03-08T06:56:29;94979.28;;;17.32;51.25
19590;BME280;12231;42.782;23.388;2023-03-08T06:58:54;94986.91;;;17.96;48.60
19590;BME280;12231;42.782;23.388;2023-03-08T07:01:20;94991.44;;;18.55;46.29
19590;BME280;12231;42.782;23.388;2023-03-08T07:03:45;94987.50;;;18.08;46.57
19590;BME280;12231;42.782;23.388;2023-03-08T07:06:13;94991.44;;;17.14;48.56
19590;BME280;12231;42.782;23.388;2023-03-08T07:08:39;94989.97;;;17.56;48.32
19590;BME280;12231;42.782;23.388;2023-03-08T07:11:05;95001.53;;;18.50;46.70
19590;BME280;12231;42.782;23.388;2023-03-08T07:13:32;95005.41;;;18.71;46.23
19590;BME280;12231;42.782;23.388;2023-03-08T07:15:58;94997.22;;;19.00;44.70
19590;BME280;12231;42.782;23.388;2023-03-08T07:18:24;94991.69;;;19.45;44.39
19590;BME280;12231;42.782;23.388;2023-03-08T07:20:54;94994.94;;;18.63;45.31
19590;BME280;12231;42.782;23.388;2023-03-08T07:23:20;95004.94;;;18.07;46.83
19590;BME280;12231;42.782;23.388;2023-03-08T07:25:46;95013.22;;;17.85;47.64
19590;BME280;12231;42.782;23.388;2023-03-08T07:28:11;95001.81;;;17.51;48.89
19590;BME280;12231;42.782;23.388;2023-03-08T07:30:37;95005.84;;;17.18;48.97
19590;BME280;12231;42.782;23.388;2023-03-08T07:33:02;95008.91;;;16.02;52.20
19590;BME280;12231;42.782;23.388;2023-03-08T07:35:28;95014.66;;;14.60;54.48
19590;BME280;12231;42.782;23.388;2023-03-08T07:37:54;95015.78;;;13.64;57.79
19590;BME280;12231;42.782;23.388;2023-03-08T07:40:19;95021.34;;;13.48;59.34
19590;BME280;12231;42.782;23.388;2023-03-08T07:42:45;95022.06;;;12.86;60.78
19590;BME280;12231;42.782;23.388;2023-03-08T07:45:11;95022.19;;;12.29;63.28
19590;BME280;12231;42.782;23.388;2023-03-08T07:47:37;95017.91;;;11.71;64.69
19590;BME280;12231;42.782;23.388;2023-03-08T07:50:02;95020.00;;;11.66;65.65
19590;BME280;12231;42.782;23.388;2023-03-08T07:52:29;95019.03;;;11.56;65.88
19590;BME280;12231;42.782;23.388;2023-03-08T07:54:55;95018.19;;;11.08;67.56
19590;BME280;12231;42.782;23.388;2023-03-08T07:57:21;95022.38;;;11.46;67.60
19590;BME280;12231;42.782;23.388;2023-03-08T07:59:47;95018.56;;;11.62;65.89
19590;BME280;12231;42.782;23.388;2023-03-08T08:02:14;95020.72;;;11.68;65.78
19590;BME280;12231;42.782;23.388;2023-03-08T08:04:39;95025.75;;;11.93;65.32
19590;BME280;12231;42.782;23.388;2023-03-08T08:07:05;95019.22;;;12.11;64.53
19590;BME280;12231;42.782;23.388;2023-03-08T08:09:31;95021.88;;;12.10;64.75
19590;BME280;12231;42.782;23.388;2023-03-08T08:11:57;95021.34;;;11.72;66.21
19590;BME280;12231;42.782;23.388;2023-03-08T08:14:23;95027.22;;;11.74;66.25
19590;BME280;12231;42.782;23.388;2023-03-08T08:16:48;95021.69;;;11.55;66.68
19590;BME280;12231;42.782;23.388;2023-03-08T08:19:14;95029.25;;;11.58;66.49
19590;BME280;12231;42.782;23.388;2023-03-08T08:21:40;95028.00;;;11.27;68.20
19590;BME280;12231;42.782;23.388;2023-03-08T08:24:06;95028.78;;;11.17;68.38
19590;BME280;12231;42.782;23.388;2023-03-08T08:26:31;95037.75;;;11.24;68.14
19590;BME280;12231;42.782;23.388;2023-03-08T08:28:57;95031.56;;;11.50;67.78
19590;BME280;12231;42.782;23.388;2023-03-08T08:31:26;95025.41;;;11.40;68.40
19590;BME280;12231;42.782;23.388;2023-03-08T08:33:53;95029.28;;;11.45;68.25
19590;BME280;12231;42.782;23.388;2023-03-08T08:36:19;95034.81;;;11.64;67.59
19590;BME280;12231;42.782;23.388;2023-03-08T08:38:45;95033.28;;;12.07;66.81
19590;BME280;12231;42.782;23.388;2023-03-08T08:41:12;95037.31;;;12.33;66.61
19590;BME280;12231;42.782;23.388;2023-03-08T08:43:40;95030.28;;;12.58;64.89
19590;BME280;12231;42.782;23.388;2023-03-08T08:46:05;95031.00;;;12.71;64.54
19590;BME280;12231;42.782;23.388;2023-03-08T08:48:31;95024.50;;;12.98;64.55
19590;BME280;12231;42.782;23.388;2023-03-08T08:51:00;95025.84;;;13.46;63.03
19590;BME280;12231;42.782;23.388;2023-03-08T08:53:26;95025.91;;;13.88;61.74
19590;BME280;12231;42.782;23.388;2023-03-08T08:55:51;95022.38;;;13.89;61.52
19590;BME280;12231;42.782;23.388;2023-03-08T08:58:16;95018.84;;;13.90;60.49
19590;BME280;12231;42.782;23.388;2023-03-08T09:00:42;95022.13;;;13.92;62.71
19590;BME280;12231;42.782;23.388;2023-03-08T09:03:09;95027.53;;;14.71;68.94
19590;BME280;12231;42.782;23.388;2023-03-08T09:05:38;95021.47;;;15.40;59.87
19590;BME280;12231;42.782;23.388;2023-03-08T09:08:03;95018.63;;;15.53;58.28
19590;BME280;12231;42.782;23.388;2023-03-08T09:10:31;95025.88;;;15.49;57.89
19590;BME280;12231;42.782;23.388;2023-03-08T09:12:57;95022.31;;;15.50;57.93
19590;BME280;12231;42.782;23.388;2023-03-08T09:15:23;95013.91;;;15.28;57.15
19590;BME280;12231;42.782;23.388;2023-03-08T09:17:48;95009.25;;;15.12;57.80
19590;BME280;12231;42.782;23.388;2023-03-08T09:20:14;95007.91;;;14.78;58.17
19590;BME280;12231;42.782;23.388;2023-03-08T09:22:40;95009.44;;;14.50;59.43
19590;BME280;12231;42.782;23.388;2023-03-08T09:25:07;95007.78;;;14.79;58.97
19590;BME280;12231;42.782;23.388;2023-03-08T09:27:33;95002.53;;;15.09;58.17
19590;BME280;12231;42.782;23.388;2023-03-08T09:29:59;94999.16;;;15.19;57.76
19590;BME280;12231;42.782;23.388;2023-03-08T09:32:24;95003.09;;;15.13;57.47
19590;BME280;12231;42.782;23.388;2023-03-08T09:34:51;94993.72;;;15.41;58.11
19590;BME280;12231;42.782;23.388;2023-03-08T09:37:16;94990.34;;;15.50;56.82
19590;BME280;12231;42.782;23.388;2023-03-08T09:39:42;94992.25;;;15.57;56.77
19590;BME280;12231;42.782;23.388;2023-03-08T09:42:17;94988.25;;;15.53;57.59
19590;BME280;12231;42.782;23.388;2023-03-08T09:48:02;94977.94;;;16.37;55.66
19590;BME280;12231;42.782;23.388;2023-03-08T09:50:52;94983.44;;;17.70;53.36
19590;BME280;12231;42.782;23.388;2023-03-08T09:53:49;94959.34;;;19.46;49.28
19590;BME280;12231;42.782;23.388;2023-03-08T09:56:20;94963.13;;;20.48;46.55
19590;BME280;12231;42.782;23.388;2023-03-08T09:58:50;94949.28;;;21.86;43.63
19590;BME280;12231;42.782;23.388;2023-03-08T10:04:18;94951.53;;;23.21;40.96
19590;BME280;12231;42.782;23.388;2023-03-08T10:06:55;94951.22;;;24.44;36.82
19590;BME280;12231;42.782;23.388;2023-03-08T10:09:31;94933.94;;;25.37;34.77
19590;BME280;12231;42.782;23.388;2023-03-08T10:14:49;94939.72;;;25.60;34.48
19590;BME280;12231;42.782;23.388;2023-03-08T10:17:22;94932.94;;;26.31;33.18
19590;BME280;12231;42.782;23.388;2023-03-08T10:20:03;94929.47;;;26.18;32.65
19590;BME280;12231;42.782;23.388;2023-03-08T10:22:34;94928.19;;;25.88;32.41
19590;BME280;12231;42.782;23.388;2023-03-08T10:25:22;94932.25;;;25.90;32.74
19590;BME280;12231;42.782;23.388;2023-03-08T10:27:51;94932.97;;;25.45;32.88
19590;BME280;12231;42.782;23.388;2023-03-08T10:30:26;94931.72;;;23.54;35.77
19590;BME280;12231;42.782;23.388;2023-03-08T10:32:57;94932.66;;;23.47;35.80
19590;BME280;12231;42.782;23.388;2023-03-08T10:38:18;94925.19;;;21.59;40.07
19590;BME280;12231;42.782;23.388;2023-03-08T10:40:44;94924.28;;;23.79;35.50
19590;BME280;12231;42.782;23.388;2023-03-08T10:43:40;94912.47;;;24.45;33.21
19590;BME280;12231;42.782;23.388;2023-03-08T10:46:17;94911.63;;;24.10;33.50
19590;BME280;12231;42.782;23.388;2023-03-08T10:48:44;94905.38;;;25.07;32.93
19590;BME280;12231;42.782;23.388;2023-03-08T10:51:29;94908.59;;;25.02;32.18
19590;BME280;12231;42.782;23.388;2023-03-08T10:53:57;94901.63;;;24.88;32.67
19590;BME280;12231;42.782;23.388;2023-03-08T10:56:25;94896.44;;;25.08;31.98
19590;BME280;12231;42.782;23.388;2023-03-08T10:58:54;94892.34;;;24.65;33.04
19590;BME280;12231;42.782;23.388;2023-03-08T11:01:32;94898.41;;;23.61;34.45
19590;BME280;12231;42.782;23.388;2023-03-08T11:04:11;94898.34;;;23.55;34.17
19590;BME280;12231;42.782;23.388;2023-03-08T11:06:37;94910.00;;;21.78;37.24
19590;BME280;12231;42.782;23.388;2023-03-08T11:09:17;94899.56;;;21.08;38.96
19590;BME280;12231;42.782;23.388;2023-03-08T11:11:43;94901.59;;;20.98;39.75
19590;BME280;12231;42.782;23.388;2023-03-08T11:14:10;94890.88;;;20.22;41.37
19590;BME280;12231;42.782;23.388;2023-03-08T11:17:10;94877.44;;;20.72;40.73
19590;BME280;12231;42.782;23.388;2023-03-08T11:25:16;94863.38;;;21.34;39.42
19590;BME280;12231;42.782;23.388;2023-03-08T11:31:24;94854.00;;;21.40;38.24
19590;BME280;12231;42.782;23.388;2023-03-08T11:36:57;94844.00;;;20.82;38.54
19590;BME280;12231;42.782;23.388;2023-03-08T11:39:32;94846.00;;;21.11;38.88
19590;BME280;12231;42.782;23.388;2023-03-08T11:47:46;94830.75;;;21.59;39.19
19590;BME280;12231;42.782;23.388;2023-03-08T11:50:33;94830.72;;;19.90;41.02
19590;BME280;12231;42.782;23.388;2023-03-08T12:00:59;94821.69;;;18.05;40.94
19590;BME280;12231;42.782;23.388;2023-03-08T12:03:33;94814.97;;;18.36;39.82
19590;BME280;12231;42.782;23.388;2023-03-08T12:06:11;94811.91;;;19.06;39.40
19590;BME280;12231;42.782;23.388;2023-03-08T12:08:46;94816.72;;;18.53;40.52
19590;BME280;12231;42.782;23.388;2023-03-08T12:11:20;94814.41;;;18.50;40.95
19590;BME280;12231;42.782;23.388;2023-03-08T12:14:13;94809.69;;;19.36;38.84
19590;BME280;12231;42.782;23.388;2023-03-08T12:16:45;94817.84;;;19.41;38.18
19590;BME280;12231;42.782;23.388;2023-03-08T12:19:25;94821.34;;;18.91;39.19
19590;BME280;12231;42.782;23.388;2023-03-08T12:25:37;94818.31;;;19.04;39.38
19590;BME280;12231;42.782;23.388;2023-03-08T12:28:01;94808.97;;;18.93;39.39
19590;BME280;12231;42.782;23.388;2023-03-08T12:33:10;94831.69;;;18.18;41.37
19590;BME280;12231;42.782;23.388;2023-03-08T12:35:48;94822.41;;;18.49;40.32
19590;BME280;12231;42.782;23.388;2023-03-08T12:40:50;94820.31;;;17.93;41.61
19590;BME280;12231;42.782;23.388;2023-03-08T12:56:50;94801.44;;;18.90;41.18
19590;BME280;12231;42.782;23.388;2023-03-08T12:59:02;94795.56;;;18.88;40.67
19590;BME280;12231;42.782;23.388;2023-03-08T13:04:24;94803.75;;;18.36;41.94
19590;BME280;12231;42.782;23.388;2023-03-08T13:09:32;94796.25;;;19.14;40.44
19590;BME280;12231;42.782;23.388;2023-03-08T13:12:12;94792.00;;;19.62;39.52
19590;BME280;12231;42.782;23.388;2023-03-08T13:14:45;94789.03;;;19.73;39.00
19590;BME280;12231;42.782;23.388;2023-03-08T13:19:56;94779.03;;;19.92;38.80
19590;BME280;12231;42.782;23.388;2023-03-08T13:22:40;94778.22;;;19.92;38.86
19590;BME280;12231;42.782;23.388;2023-03-08T13:25:20;94770.09;;;20.33;38.70
19590;BME280;12231;42.782;23.388;2023-03-08T13:28:06;94767.44;;;20.41;37.58
19590;BME280;12231;42.782;23.388;2023-03-08T13:30:52;94771.84;;;19.94;38.17
19590;BME280;12231;42.782;23.388;2023-03-08T13:33:22;94769.81;;;20.12;37.32
19590;BME280;12231;42.782;23.388;2023-03-08T13:36:05;94771.78;;;19.32;39.53
19590;BME280;12231;42.782;23.388;2023-03-08T13:38:33;94773.88;;;19.04;39.85
19590;BME280;12231;42.782;23.388;2023-03-08T13:40:59;94767.50;;;19.23;39.77
19590;BME280;12231;42.782;23.388;2023-03-08T13:43:30;94770.28;;;19.21;39.79
19590;BME280;12231;42.782;23.388;2023-03-08T13:46:05;94760.19;;;19.34;40.12
19590;BME280;12231;42.782;23.388;2023-03-08T13:48:35;94760.00;;;19.44;40.19
19590;BME280;12231;42.782;23.388;2023-03-08T13:51:01;94774.72;;;19.21;40.82
19590;BME280;12231;42.782;23.388;2023-03-08T13:53:36;94772.41;;;19.01;40.31
19590;BME280;12231;42.782;23.388;2023-03-08T13:56:05;94766.38;;;19.17;41.22
19590;BME280;12231;42.782;23.388;2023-03-08T13:58:39;94759.84;;;19.13;40.56
19590;BME280;12231;42.782;23.388;2023-03-08T14:01:12;94765.56;;;19.25;40.57
19590;BME280;12231;42.782;23.388;2023-03-08T14:03:39;94764.91;;;19.31;40.24
19590;BME280;12231;42.782;23.388;2023-03-08T14:06:22;94759.81;;;19.53;40.59
19590;BME280;12231;42.782;23.388;2023-03-08T14:08:49;94769.63;;;19.67;43.57
19590;BME280;12231;42.782;23.388;2023-03-08T14:11:27;94768.59;;;19.84;45.08
19590;BME280;12231;42.782;23.388;2023-03-08T14:13:54;94763.69;;;19.81;40.76
19590;BME280;12231;42.782;23.388;2023-03-08T14:16:28;94764.28;;;19.29;41.91
19590;BME280;12231;42.782;23.388;2023-03-08T14:18:55;94768.34;;;19.15;40.60